createdAt,value
2022-10-10T00:02:15.432Z,101104.19
2022-10-10T00:07:16.669Z,101098.06
2022-10-10T00:12:17.906Z,101091.06
2022-10-10T00:17:19.155Z,101093.72
2022-10-10T00:22:20.789Z,101097.91
2022-10-10T00:27:22.088Z,101096.22
2022-10-10T00:32:23.475Z,101095.28
2022-10-10T00:37:24.786Z,101094.44
2022-10-10T00:42:26.037Z,101090.91
2022-10-10T00:47:27.281Z,101086.66
2022-10-10T00:52:28.546Z,101082.38
2022-10-10T00:57:29.845Z,101082.38
2022-10-10T01:02:31.347Z,101078.06
2022-10-10T01:07:33.403Z,101073.75
2022-10-10T01:12:37.388Z,101074.66
2022-10-10T01:17:44.085Z,101063.53
2022-10-10T01:23:00.320Z,101055.91
2022-10-10T01:28:02.947Z,101051.63
2022-10-10T01:33:04.211Z,101047.34
2022-10-10T01:38:12.630Z,101049.94
2022-10-10T01:43:13.970Z,101042.25
2022-10-10T01:48:17.116Z,101038.81
2022-10-10T01:53:30.928Z,101038.00
2022-10-10T01:58:32.175Z,101029.50
2022-10-10T02:03:37.726Z,101026.91
2022-10-10T02:08:51.373Z,101019.19
2022-10-10T02:13:55.747Z,101020.94
2022-10-10T02:18:59.750Z,101009.88
2022-10-10T02:24:02.315Z,101008.13
2022-10-10T02:29:09.202Z,101008.22
2022-10-10T02:34:13.286Z,101000.50
2022-10-10T02:39:16.733Z,100997.09
2022-10-10T02:44:19.005Z,100987.63
2022-10-10T02:49:24.472Z,100986.81
2022-10-10T02:54:25.768Z,100983.44
2022-10-10T02:59:27.026Z,100976.63
2022-10-10T03:04:28.803Z,100964.56
2022-10-10T03:09:30.095Z,100973.19
2022-10-10T03:14:31.379Z,100973.13
2022-10-10T03:19:32.626Z,100961.13
2022-10-10T03:24:33.873Z,100962.00
2022-10-10T03:29:35.514Z,100960.22
2022-10-10T03:34:36.744Z,100949.88
2022-10-10T03:39:38.058Z,100953.28
2022-10-10T03:44:39.298Z,100948.13
2022-10-10T03:49:40.546Z,100949.84
2022-10-10T03:54:41.806Z,100947.25
2022-10-10T03:59:43.045Z,100943.84
2022-10-10T04:04:44.292Z,100944.78
2022-10-10T04:09:45.545Z,100944.81
2022-10-10T04:14:46.781Z,100943.13
2022-10-10T04:19:48.020Z,100939.84
2022-10-10T04:24:49.297Z,100939.81
2022-10-10T04:29:50.534Z,100947.47
2022-10-10T04:34:51.860Z,100943.16
2022-10-10T04:39:53.163Z,100941.50
2022-10-10T05:00:21.605Z,100934.84
2022-10-10T05:05:22.945Z,100938.22
2022-10-10T05:10:25.075Z,100933.09
2022-10-10T05:15:26.981Z,100937.44
2022-10-10T05:20:28.252Z,100934.84
2022-10-10T05:25:29.480Z,100930.56
2022-10-10T05:30:30.780Z,100934.91
2022-10-10T05:35:32.036Z,100930.69
2022-10-10T05:40:33.263Z,100934.94
2022-10-10T05:45:34.507Z,100926.41
2022-10-10T05:50:40.333Z,100933.31
2022-10-10T05:55:41.607Z,100934.13
2022-10-10T06:00:43.540Z,100943.56
2022-10-10T06:05:46.000Z,100938.44
2022-10-10T06:10:47.767Z,100942.81
2022-10-10T06:15:51.018Z,100941.06
2022-10-10T06:20:52.599Z,100950.63
2022-10-10T06:25:53.895Z,100948.84
2022-10-10T06:30:58.765Z,100953.19
2022-10-10T06:36:04.836Z,100961.84
2022-10-10T06:41:07.386Z,100965.38
2022-10-10T06:46:09.565Z,100967.13
2022-10-10T06:51:14.119Z,100964.66
2022-10-10T06:56:26.368Z,100968.19
2022-10-10T07:01:29.073Z,100969.19
2022-10-10T07:06:34.576Z,100911.38
2022-10-10T07:11:36.152Z,100975.31
2022-10-10T07:16:37.407Z,100975.38
2022-10-10T07:21:38.696Z,100967.69
2022-10-10T07:26:39.959Z,100968.56
2022-10-10T07:31:41.282Z,100971.16
2022-10-10T07:36:43.384Z,100968.59
2022-10-10T07:41:44.629Z,100977.22
2022-10-10T07:46:46.407Z,100973.78
2022-10-10T07:51:47.633Z,100977.22
2022-10-10T07:56:48.857Z,100979.84
2022-10-10T08:01:50.625Z,100987.59
2022-10-10T08:06:51.897Z,100994.47
2022-10-10T08:11:53.141Z,100995.38
2022-10-10T08:16:54.440Z,100997.97
2022-10-10T08:21:56.446Z,101004.00
2022-10-10T08:26:57.977Z,100995.34
2022-10-10T08:31:59.200Z,100999.59
2022-10-10T08:37:00.447Z,100999.53
2022-10-10T08:42:02.351Z,101003.81
2022-10-10T08:47:05.803Z,101007.19
2022-10-10T08:52:25.736Z,101008.91
2022-10-10T08:57:47.903Z,101018.41
2022-10-10T09:02:55.009Z,101023.59
2022-10-10T09:08:16.501Z,101010.50
2022-10-10T09:13:30.940Z,101016.47
2022-10-10T09:18:39.056Z,101011.16
2022-10-10T09:23:42.867Z,101015.50
2022-10-10T09:28:48.716Z,101017.22
2022-10-10T09:33:59.072Z,101014.53
2022-10-10T09:39:02.592Z,101023.25
2022-10-10T09:44:05.619Z,101021.25
2022-10-10T09:49:07.097Z,101027.19
2022-10-10T09:54:08.331Z,101033.78
2022-10-10T09:59:29.528Z,101021.91
2022-10-10T10:04:33.754Z,101028.50
2022-10-10T10:09:35.058Z,101035.25
2022-10-10T10:14:37.568Z,101027.94
2022-10-10T10:19:43.653Z,101030.09
2022-10-10T10:24:44.886Z,101034.00
2022-10-10T10:29:47.316Z,101042.63
2022-10-10T10:34:48.549Z,101039.28
2022-10-10T10:40:08.666Z,101033.53
2022-10-10T10:45:15.515Z,101033.84
2022-10-10T10:50:35.774Z,101031.25
2022-10-10T10:55:39.826Z,101040.28
2022-10-10T11:01:24.259Z,101037.63
2022-10-10T11:06:22.533Z,101036.31
2022-10-10T11:11:46.566Z,101035.34
2022-10-10T11:16:53.557Z,101031.03
2022-10-10T11:21:59.019Z,101040.47
2022-10-10T11:27:04.471Z,101039.38
2022-10-10T11:32:11.111Z,101044.22
2022-10-10T11:37:16.096Z,101046.38
2022-10-10T11:42:26.543Z,101046.09
2022-10-10T11:47:27.761Z,101039.38
2022-10-10T11:52:47.837Z,101001.09
2022-10-10T11:57:59.232Z,101051.00
2022-10-10T12:03:00.488Z,101051.72
2022-10-10T12:08:17.669Z,101045.94
2022-10-10T12:13:34.118Z,101051.56
2022-10-10T12:18:39.954Z,101045.88
2022-10-10T12:23:43.166Z,101044.53
2022-10-10T12:29:03.328Z,101037.06
2022-10-10T12:34:08.039Z,101037.72
2022-10-10T12:39:10.700Z,101039.22
2022-10-10T12:44:14.703Z,101041.53
2022-10-10T12:49:18.360Z,101033.13
2022-10-10T12:54:24.492Z,101031.59
2022-10-10T12:59:25.949Z,101039.63
2022-10-10T13:04:28.322Z,101026.56
2022-10-10T13:09:35.759Z,101029.44
2022-10-10T13:14:44.701Z,101038.25
2022-10-10T13:19:45.950Z,101050.72
2022-10-10T13:24:47.873Z,101055.09
2022-10-10T13:29:49.739Z,101055.63
2022-10-10T13:34:56.883Z,101058.44
2022-10-10T13:39:58.156Z,101039.94
2022-10-10T13:45:00.419Z,101054.59
2022-10-10T13:50:01.703Z,101051.22
2022-10-10T13:55:23.797Z,101066.22
2022-10-10T14:00:25.097Z,101080.97
2022-10-10T14:05:29.094Z,101096.66
2022-10-10T14:10:35.863Z,101090.47
2022-10-10T14:15:43.075Z,101101.66
2022-10-10T14:20:45.031Z,101102.63
2022-10-10T14:25:48.143Z,101124.38
2022-10-10T14:30:49.414Z,101117.31
2022-10-10T14:35:51.773Z,101133.81
2022-10-10T14:40:53.604Z,101141.75
2022-10-10T14:45:54.961Z,101146.91
2022-10-10T14:50:56.560Z,101154.75
2022-10-10T14:55:57.872Z,101155.56
2022-10-10T15:00:59.436Z,101166.16
2022-10-10T15:06:01.003Z,101173.22
2022-10-10T15:11:02.471Z,101175.84
2022-10-10T15:16:03.968Z,101180.34
2022-10-10T15:21:09.424Z,101186.53
2022-10-10T15:26:10.928Z,101194.38
2022-10-10T15:31:12.166Z,101211.81
2022-10-10T15:36:18.292Z,101223.16
2022-10-10T15:41:20.982Z,101231.09
2022-10-10T15:46:23.393Z,101246.78
2022-10-10T15:51:24.861Z,101252.09
2022-10-10T15:56:26.131Z,101267.03
2022-10-10T16:01:27.959Z,101274.94
2022-10-10T16:06:29.533Z,101295.88
2022-10-10T16:11:30.916Z,101294.31
2022-10-10T16:16:33.022Z,101303.22
2022-10-10T16:21:34.272Z,101310.28
2022-10-10T16:26:37.322Z,101314.84
2022-10-10T16:31:39.282Z,101329.84
2022-10-10T16:36:40.505Z,101335.06
2022-10-10T16:41:49.464Z,101343.88
2022-10-10T16:46:51.146Z,101358.84
2022-10-10T16:51:52.451Z,101373.72
2022-10-10T16:56:53.730Z,101379.09
2022-10-10T17:01:55.072Z,101401.75
2022-10-10T17:06:56.315Z,101411.63
2022-10-10T17:11:57.560Z,101433.59
2022-10-10T17:17:11.520Z,101452.69
2022-10-10T17:22:13.625Z,101458.94
2022-10-10T17:27:14.874Z,101477.38
2022-10-10T17:32:16.682Z,101479.22
2022-10-10T17:37:17.909Z,101487.88
2022-10-10T17:42:19.265Z,101506.97
2022-10-10T17:47:20.561Z,101513.13
2022-10-10T17:52:21.807Z,101530.50
2022-10-10T17:57:23.086Z,101542.59
2022-10-10T18:02:24.415Z,101556.53
2022-10-10T18:07:25.695Z,101573.03
2022-10-10T18:12:26.975Z,101577.34
2022-10-10T18:17:28.217Z,101589.50
2022-10-10T18:22:29.477Z,101590.38
2022-10-10T18:27:30.790Z,101595.59
2022-10-10T18:32:32.171Z,101610.31
2022-10-10T18:37:34.892Z,101616.44
2022-10-10T18:42:36.150Z,101625.94
2022-10-10T18:47:37.423Z,101640.69
2022-10-10T18:52:38.729Z,101641.50
2022-10-10T18:57:40.080Z,101647.59
2022-10-10T19:02:41.326Z,101656.22
2022-10-10T19:07:42.621Z,101648.38
2022-10-10T19:12:47.272Z,101663.06
2022-10-10T19:17:48.685Z,101662.16
2022-10-10T19:22:49.911Z,101662.88
2022-10-10T19:27:51.182Z,101687.91
2022-10-10T19:32:52.430Z,101693.03
2022-10-10T19:37:53.685Z,101699.69
2022-10-10T19:42:54.976Z,101701.34
2022-10-10T19:47:56.312Z,101711.59
2022-10-10T19:52:58.193Z,101719.38
2022-10-10T19:58:01.326Z,101720.03
2022-10-10T20:03:02.559Z,101729.38
2022-10-10T20:08:03.877Z,101740.28
2022-10-10T20:13:05.136Z,101744.53
2022-10-10T20:18:06.373Z,101752.28
2022-10-10T20:23:07.775Z,101753.16
2022-10-10T20:28:09.804Z,101777.94
2022-10-10T20:33:11.244Z,101772.44
2022-10-10T20:38:12.724Z,101790.75
2022-10-10T20:43:16.229Z,101788.09
2022-10-10T20:48:17.550Z,101798.25
2022-10-10T20:53:18.786Z,101807.34
2022-10-10T20:58:20.182Z,101809.22
2022-10-10T21:03:21.472Z,101807.34
2022-10-10T21:08:22.702Z,101817.63
2022-10-10T21:13:23.968Z,101824.59
2022-10-10T21:18:25.194Z,101830.13
2022-10-10T21:23:27.209Z,101842.69
2022-10-10T21:28:28.511Z,101836.63
2022-10-10T21:33:29.877Z,101845.13
2022-10-10T21:38:31.242Z,101853.44
2022-10-10T21:43:32.669Z,101857.09
2022-10-10T21:48:34.068Z,101856.72
2022-10-10T21:53:35.672Z,101864.28
2022-10-10T21:58:38.886Z,101871.41
2022-10-10T22:03:40.127Z,101871.59
2022-10-10T22:08:42.158Z,101878.53
2022-10-10T22:13:43.760Z,101875.94
2022-10-10T22:18:45.136Z,101880.38
2022-10-10T22:23:46.555Z,101883.38
2022-10-10T22:28:48.027Z,101888.31
2022-10-10T22:33:49.331Z,101890.34
2022-10-10T22:38:50.563Z,101892.69
2022-10-10T22:43:51.870Z,101893.91
2022-10-10T22:48:53.108Z,101911.06
2022-10-10T22:53:54.411Z,101898.34
2022-10-10T22:58:55.701Z,101903.88
2022-10-10T23:04:00.402Z,101910.09
2022-10-10T23:09:02.022Z,101916.47
2022-10-10T23:14:03.319Z,101924.06
2022-10-10T23:19:04.548Z,101923.00
2022-10-10T23:24:05.923Z,101918.28
2022-10-10T23:29:08.022Z,101931.03
2022-10-10T23:34:09.354Z,101925.56
2022-10-10T23:39:10.640Z,101933.50
2022-10-10T23:44:11.935Z,101931.34
2022-10-10T23:49:13.174Z,101931.56
2022-10-10T23:54:14.411Z,101942.19
2022-10-10T23:59:15.770Z,101941.72
